Latest Weather Observations for Dalby

IDQ60801

Issued at 8:32 pm EST Tuesday 17 January 2017 (issued every 30 minutes, with the page automatically refreshed every 10 minutes)

About weather observations | Map of weather stations | Latest weather observations for QLD | Other Formats
Station Details ID: 041522 Name: DALBY AIRPORT Lat: -27.16 Lon: 151.26 Height: 343.9 m
Data from the previous 72 hours. | See also: Recent months at Dalby
Date/Time
EST
Temp
°C
App
Temp
°C
Dew
Point
°C
Rel
Hum
%
Delta-T
°C
Wind Press
QNH
hPa
Press
MSL
hPa
Rain since
9am
mm
Dir  Spd
km/h
Gust
km/h
Spd
kts
Gust
kts
17/08:30pm 27.0 26.3 15.4 49 7.2 NE 13 17 7 9 1015.3 1013.2 0.0
17/08:00pm 28.7 27.4 14.9 43 8.5 ENE 15 20 8 11 1015.1 1013.0 0.0
17/07:30pm 29.8 27.9 15.1 40 9.1 ENE 19 22 10 12 1014.7 1012.6 0.0
17/07:00pm 30.8 28.7 14.8 37 9.9 ENE 19 24 10 13 1014.4 1012.3 0.0
17/06:30pm 32.3 30.2 13.5 32 11.5 ENE 17 22 9 12 1014.1 1012.0 0.0
17/06:00pm 33.2 31.0 13.3 30 12.2 ENE 17 22 9 12 1013.8 1011.7 0.0
17/05:30pm 33.8 31.4 12.7 27 12.8 ENE 17 24 9 13 1013.6 1011.5 0.0
17/05:00pm 34.4 34.1 11.5 25 13.7 SW 4 9 2 5 1013.6 1011.5 0.0
17/04:30pm 34.9 34.5 12.5 25 13.6 NNE 6 13 3 7 1013.6 1011.5 0.0
17/04:00pm 34.1 31.8 11.9 26 13.3 NE 15 28 8 15 1013.7 1011.6 0.0
17/03:30pm 34.8 33.5 13.6 28 13.1 NE 13 24 7 13 1013.9 1011.8 0.0
17/03:00pm 34.3 33.6 13.2 28 12.9 E 9 19 5 10 1014.2 1012.1 0.0
17/02:30pm 34.2 33.3 12.5 27 13.2 WNW 9 13 5 7 1014.5 1012.4 0.0
17/02:00pm 33.5 32.6 12.5 28 12.7 SE 9 15 5 8 1015.1 1013.0 0.0
17/01:30pm 32.8 32.3 11.9 28 12.5 SW 6 13 3 7 1015.2 1013.1 0.0
17/01:00pm 32.4 31.3 12.1 29 12.2 SSE 9 17 5 9 1015.7 1013.6 0.0
17/12:30pm 31.6 30.3 11.4 29 11.9 WNW 9 17 5 9 1016.2 1014.1 0.0
17/12:00pm 31.0 29.9 11.9 31 11.3 SW 9 13 5 7 1016.7 1014.6 0.0
17/11:30am 30.4 28.7 12.3 33 10.8 W 13 19 7 10 1017.2 1015.1 0.0
17/11:00am 29.6 28.8 12.9 35 10.0 WNW 9 19 5 10 1017.6 1015.6 0.0
17/10:30am 29.0 29.4 15.2 43 8.6 E 7 11 4 6 1018.0 1015.9 0.0
17/10:00am 27.7 28.0 15.0 45 7.8 NNE 7 13 4 7 1018.2 1016.1 0.0
17/09:30am 26.9 26.7 15.6 50 7.0 NNW 11 20 6 11 1018.4 1016.3 0.0
17/09:00am 26.0 27.2 17.4 59 5.4 W 7 15 4 8 1018.5 1016.4 0.0
17/08:30am 25.0 26.1 17.0 61 5.0 WSW 7 15 4 8 1018.6 1016.5 0.0
17/08:00am 24.1 25.2 16.6 63 4.7 SW 6 11 3 6 1018.6 1016.5 0.0
17/07:30am 23.9 25.0 16.7 64 4.5 S 6 13 3 7 1018.6 1016.5 0.0
17/07:00am 23.1 24.7 17.8 72 3.3 SW 6 9 3 5 1018.5 1016.4 0.0
17/06:30am 22.1 24.9 17.9 77 2.6 CALM 0 0 0 0 1018.1 1016.0 0.0
17/06:00am 20.9 23.7 17.9 83 1.9 CALM 0 0 0 0 1017.9 1015.8 0.0
17/05:30am 19.6 22.2 17.4 87 1.4 CALM 0 0 0 0 1017.5 1015.4 0.0
17/05:00am 19.5 21.9 17.1 86 1.5 CALM 0 0 0 0 1017.1 1015.0 0.0
17/04:30am 19.6 22.0 17.0 85 1.6 CALM 0 0 0 0 1016.6 1014.5 0.0
17/04:00am 19.7 20.3 16.9 84 1.7 ENE 9 11 5 6 1016.3 1014.2 0.0
17/03:30am 20.6 20.8 17.6 83 1.9 ENE 13 15 7 8 1016.1 1014.0 0.0
17/03:00am 21.1 20.3 17.9 82 2.0 ENE 19 26 10 14 1015.9 1013.8 0.0
17/02:30am 21.1 21.9 18.1 83 1.9 E 11 13 6 7 1016.1 1014.0 0.0
17/02:00am 21.4 21.9 18.4 83 1.9 E 13 19 7 10 1016.1 1014.0 0.0
17/01:30am 21.8 21.6 18.6 82 2.0 E 17 19 9 10 1016.2 1014.1 0.0
17/01:00am 22.0 23.7 18.4 80 2.3 E 7 11 4 6 1016.3 1014.2 0.0
17/12:30am 22.6 22.8 18.6 78 2.6 E 15 19 8 10 1016.2 1014.1 0.0
17/12:00am 23.2 22.8 18.9 77 2.8 E 19 24 10 13 1016.1 1014.0 0.0
 
Date/Time
EST
Temp
°C
App
Temp
°C
Dew
Point
°C
Rel
Hum
%
Delta-T
°C
Wind Press
QNH
hPa
Press
MSL
hPa
Rain since
9am
mm
Dir  Spd
km/h
Gust
km/h
Spd
kts
Gust
kts
16/11:30pm 23.4 23.4 18.9 76 2.9 E 17 20 9 11 1016.2 1014.1 0.0
16/11:00pm 23.8 23.4 18.9 74 3.2 E 19 24 10 13 1016.3 1014.2 0.0
16/10:30pm 24.0 24.0 18.9 73 3.3 E 17 19 9 10 1016.3 1014.2 0.0
16/10:00pm 24.5 24.6 18.4 69 3.9 ENE 15 20 8 11 1016.1 1014.0 0.0
16/09:30pm 25.3 24.4 18.2 64 4.5 NE 20 24 11 13 1016.0 1013.9 0.0
16/09:00pm 26.0 24.4 18.4 63 4.9 NE 24 32 13 17 1015.9 1013.8 0.0
16/08:30pm 26.9 24.7 17.9 57 5.8 ENE 26 33 14 18 1015.8 1013.7 0.0
16/08:00pm 27.5 25.9 17.4 54 6.4 E 22 28 12 15 1015.5 1013.4 0.0
16/07:30pm 28.2 26.3 16.8 50 7.2 E 22 28 12 15 1015.2 1013.1 0.0
16/07:00pm 29.1 27.0 16.3 46 8.1 E 22 30 12 16 1014.7 1012.6 0.0
16/06:30pm 30.1 27.3 15.4 41 9.2 E 24 32 13 17 1014.3 1012.2 0.0
16/06:00pm 31.5 29.1 15.5 38 10.0 E 22 30 12 16 1013.9 1011.8 0.0
16/05:30pm 32.2 29.0 14.3 33 11.1 E 24 30 13 16 1013.5 1011.4 0.0
16/05:00pm 32.6 29.5 13.3 31 11.8 E 22 32 12 17 1013.0 1010.9 0.0
16/04:30pm 32.8 29.4 12.4 29 12.3 E 22 32 12 17 1012.8 1010.7 0.0
16/04:00pm 33.4 30.3 14.5 32 11.8 E 24 35 13 19 1012.6 1010.5 0.0
16/03:30pm 33.5 30.6 15.0 32 11.6 ESE 24 35 13 19 1012.5 1010.4 0.0
16/03:00pm 33.1 30.8 14.7 33 11.5 E 20 30 11 16 1012.8 1010.7 0.0
16/02:30pm 33.6 31.3 14.1 30 12.1 ENE 19 32 10 17 1012.9 1010.8 0.0
16/02:00pm 33.1 31.9 16.0 35 10.9 ENE 17 24 9 13 1013.1 1011.0 0.0
16/01:30pm 32.8 32.1 15.3 34 11.0 ENE 13 24 7 13 1013.5 1011.4 0.0
16/01:00pm 31.3 30.3 15.7 39 9.8 ENE 15 24 8 13 1013.8 1011.7 0.0
16/12:30pm 31.4 31.2 16.6 41 9.4 E 13 30 7 16 1014.0 1011.9 0.0
16/12:00pm 31.2 31.4 16.8 42 9.2 E 11 26 6 14 1014.2 1012.1 0.0
16/11:30am 30.5 30.9 17.2 44 8.5 ENE 11 19 6 10 1014.5 1012.4 0.0
16/11:00am 29.5 29.9 17.3 47 7.8 NE 11 26 6 14 1014.9 1012.7 0.0
16/10:30am 29.9 29.9 18.0 48 7.7 E 15 26 8 14 1015.1 1013.0 0.0
16/10:00am 29.7 30.0 19.7 55 6.6 E 17 24 9 13 1015.2 1013.1 0.0
16/09:30am 28.5 27.8 18.6 55 6.4 E 20 30 11 16 1015.3 1013.2 0.0
16/09:00am 28.1 27.6 19.1 58 5.9 ENE 20 28 11 15 1015.3 1013.2 6.8
16/08:30am 27.5 26.8 19.6 62 5.2 ENE 22 30 12 16 1015.2 1013.1 6.8
16/08:00am 26.4 26.2 19.8 67 4.3 E 20 28 11 15 1015.2 1013.1 6.8
16/07:30am 25.6 25.6 20.2 72 3.6 E 20 28 11 15 1015.2 1013.1 6.8
16/07:00am 24.8 24.6 19.8 74 3.3 E 20 28 11 15 1014.7 1012.6 6.8
16/06:30am 24.0 24.2 20.1 79 2.6 ESE 19 22 10 12 1014.6 1012.5 6.8
16/06:00am 23.0 23.1 20.0 83 2.0 ESE 19 24 10 13 1014.1 1012.0 6.8
16/05:30am 22.4 22.5 19.9 86 1.6 ESE 19 22 10 12 1013.8 1011.7 6.8
16/05:00am 22.3 22.3 19.8 86 1.6 ESE 19 22 10 12 1013.3 1011.2 6.8
16/04:30am 22.4 22.8 19.9 86 1.6 ESE 17 20 9 11 1013.0 1010.9 6.8
16/04:00am 22.6 23.6 20.3 87 1.5 ESE 15 19 8 10 1012.8 1010.7 6.8
16/03:30am 22.7 22.9 20.2 86 1.6 E 19 24 10 13 1012.3 1010.1 6.8
16/03:00am 23.0 23.3 20.5 86 1.6 E 19 22 10 12 1012.1 1009.9 6.8
16/02:30am 23.0 23.7 20.5 86 1.6 ENE 17 20 9 11 1012.3 1010.1 6.8
16/02:00am 23.0 23.2 20.5 86 1.6 E 20 26 11 14 1012.3 1010.1 6.8
16/01:30am 22.6 24.0 20.3 87 1.5 E 13 17 7 9 1012.4 1010.2 6.8
16/01:00am 22.4 23.7 20.1 87 1.5 E 13 17 7 9 1012.4 1010.2 6.8
16/12:30am 22.3 24.2 19.8 86 1.6 ENE 9 13 5 7 1012.7 1010.6 6.8
16/12:00am 22.4 23.8 19.6 84 1.8 ENE 11 15 6 8 1013.2 1011.1 6.8
 
Date/Time
EST
Temp
°C
App
Temp
°C
Dew
Point
°C
Rel
Hum
%
Delta-T
°C
Wind Press
QNH
hPa
Press
MSL
hPa
Rain since
9am
mm
Dir  Spd
km/h
Gust
km/h
Spd
kts
Gust
kts
15/11:30pm 22.8 23.2 19.8 83 2.0 E 17 20 9 11 1013.5 1011.4 6.8
15/11:00pm 23.0 22.6 20.1 84 1.9 ESE 22 28 12 15 1013.3 1011.2 6.8
15/10:30pm 23.4 24.4 21.1 87 1.5 SE 17 22 9 12 1013.7 1011.6 6.8
15/10:00pm 23.2 26.1 21.1 88 1.4 NNW 7 11 4 6 1013.2 1011.1 6.8
15/09:30pm 23.2 25.1 21.3 89 1.3 NNE 13 17 7 9 1013.8 1011.7 6.8
15/09:00pm 23.3 24.1 21.4 89 1.3 NNW 19 24 10 13 1013.9 1011.8 6.8
15/08:30pm 24.0 26.0 21.5 86 1.7 WNW 13 19 7 10 1012.9 1010.8 6.6
15/08:00pm 24.3 25.5 20.6 80 2.4 W 15 28 8 15 1012.2 1010.0 0.6
15/07:30pm 26.4 27.1 21.2 73 3.5 N 19 30 10 16 1011.1 1009.0 0.6
15/07:00pm 28.5 30.3 21.8 67 4.6 ENE 15 32 8 17 1009.9 1007.8 0.6
15/06:30pm 31.1 30.3 20.1 52 7.4 ENE 24 33 13 18 1009.4 1007.2 0.0
15/06:00pm 32.0 31.6 19.3 47 8.4 E 20 30 11 16 1008.9 1006.7 0.0
15/05:30pm 31.3 33.3 19.9 50 7.6 NNW 9 24 5 13 1008.1 1006.0 0.0
15/05:00pm 30.7 29.8 19.1 50 7.7 ENE 22 35 12 19 1007.4 1005.3 0.0
15/04:30pm 33.6 31.9 19.7 44 9.3 ESE 28 37 15 20 1007.6 1005.5 0.0
15/04:00pm 34.1 32.0 19.7 42 9.7 ESE 30 39 16 21 1007.7 1005.6 0.0
15/03:30pm 33.7 32.9 20.1 44 9.2 ESE 24 35 13 19 1007.9 1005.8 0.0
15/03:00pm 33.6 33.6 18.9 41 9.8 SE 17 28 9 15 1007.8 1005.7 0.0
15/02:30pm 34.3 34.9 21.0 45 9.1 SE 19 32 10 17 1007.9 1005.8 0.0
15/02:00pm 33.5 33.4 19.6 44 9.3 ESE 19 26 10 14 1008.3 1006.2 0.0
15/01:30pm 33.2 33.9 19.7 45 9.0 ESE 15 24 8 13 1008.7 1006.5 0.0
15/01:00pm 31.8 32.5 20.4 51 7.7 ESE 17 24 9 13 1009.3 1007.1 0.0
15/12:30pm 32.1 32.9 20.7 51 7.7 E 17 26 9 14 1009.5 1007.3 0.0
15/12:00pm 31.4 32.4 21.0 54 7.1 E 17 20 9 11 1009.6 1007.4 0.0
15/11:30am 31.3 32.5 21.5 56 6.7 ESE 17 26 9 14 1009.6 1007.4 0.0
15/11:00am 30.5 32.8 22.1 61 5.8 SSE 13 20 7 11 1010.0 1007.9 0.0
15/10:30am 29.4 31.4 21.6 63 5.3 SSE 13 19 7 10 1009.8 1007.6 0.0
15/10:00am 29.1 31.4 21.3 62 5.3 SSE 11 15 6 8 1009.9 1007.8 0.0
15/09:30am 28.2 30.0 21.2 65 4.7 SE 13 17 7 9 1010.1 1008.0 0.0
15/09:00am 28.2 30.5 22.0 69 4.2 SE 13 24 7 13 1010.1 1008.0 0.0
15/08:30am 27.7 30.0 22.0 71 3.9 ESE 13 19 7 10 1010.4 1008.3 0.0
15/08:00am 27.5 30.3 21.5 70 4.1 SE 9 13 5 7 1010.2 1008.1 0.0
15/07:30am 27.2 30.6 21.7 72 3.7 SSE 6 9 3 5 1010.1 1008.0 0.0
15/07:00am 26.3 30.9 21.7 76 3.1 CALM 0 0 0 0 1009.9 1007.8 0.0
15/06:30am 25.7 30.2 21.6 78 2.8 CALM 0 0 0 0 1009.7 1007.5 0.0
15/06:00am 25.3 30.0 22.0 82 2.2 CALM 0 0 0 0 1009.3 1007.1 0.0
15/05:30am 25.1 29.3 21.8 82 2.2 W 2 6 1 3 1008.3 1006.2 0.0
15/05:00am 25.0 28.0 21.9 83 2.1 NNW 9 11 5 6 1008.1 1006.0 0.0
15/04:30am 25.1 29.3 21.8 82 2.2 ESE 2 6 1 3 1008.1 1006.0 0.0
15/04:00am 25.2 27.6 21.5 80 2.5 E 11 15 6 8 1008.0 1005.9 0.0
15/03:30am 25.3 27.9 21.2 78 2.7 SE 9 9 5 5 1008.2 1006.1 0.0
15/03:00am 25.1 29.0 21.2 79 2.6 ENE 2 6 1 3 1008.4 1006.3 0.0
15/02:30am 25.2 28.8 21.3 79 2.6 ENE 4 7 2 4 1008.2 1006.1 0.0
15/02:00am 25.1 27.5 21.6 81 2.4 ENE 11 15 6 8 1008.0 1005.9 0.0
15/01:30am 25.0 27.8 21.5 81 2.3 ESE 9 13 5 7 1008.1 1006.0 0.0
15/01:00am 25.7 28.6 21.1 76 3.1 S 7 9 4 5 1008.7 1006.5 0.0
15/12:30am 25.5 28.2 21.4 78 2.8 WSW 9 11 5 6 1008.1 1006.0 0.0
15/12:00am 24.9 27.9 21.2 80 2.5 NNW 7 13 4 7 1008.8 1006.6 0.0
 
Date/Time
EST
Temp
°C
App
Temp
°C
Dew
Point
°C
Rel
Hum
%
Delta-T
°C
Wind Press
QNH
hPa
Press
MSL
hPa
Rain since
9am
mm
Dir  Spd
km/h
Gust
km/h
Spd
kts
Gust
kts
14/11:30pm 25.5 27.8 21.4 78 2.8 SE 11 15 6 8 1009.0 1006.8 0.0
14/11:00pm 25.8 28.0 21.2 76 3.1 SSW 11 22 6 12 1009.5 1007.3 0.0
14/10:30pm 28.5 27.6 18.3 54 6.6 WSW 20 28 11 15 1009.4 1007.2 0.0
14/10:00pm 30.1 27.4 17.5 46 8.1 WSW 28 41 15 22 1008.3 1006.2 0.0
14/09:45pm 31.9 28.9 17.8 43 9.2 WNW 30 48 16 26 1007.6 1005.5 0.0
14/09:30pm 31.9 30.1 17.0 41 9.6 NW 22 32 12 17 1006.9 1004.7 0.0
14/09:00pm 32.8 31.6 16.2 37 10.6 NNW 17 22 9 12 1005.9 1003.7 0.0

Other Formats:

Comma delimited format used in spreadsheet applications
http://www.bom.gov.au/fwo/IDQ60801/IDQ60801.94542.axf

JavaScript Object Notation format (JSON) in row-major order
http://www.bom.gov.au/fwo/IDQ60801/IDQ60801.94542.json